createdAt,value
2023-11-08T00:00:14.880Z,12.60
2023-11-08T00:03:21.523Z,12.77
2023-11-08T00:06:29.690Z,13.13
2023-11-08T00:09:36.859Z,12.93
2023-11-08T00:12:44.167Z,13.27
2023-11-08T00:15:50.497Z,11.93
2023-11-08T00:18:56.996Z,11.77
2023-11-08T00:22:04.911Z,11.30
2023-11-08T00:25:11.742Z,10.83
2023-11-08T00:28:18.333Z,12.00
2023-11-08T00:31:25.356Z,11.27
2023-11-08T00:34:32.141Z,10.53
2023-11-08T00:37:40.488Z,10.30
2023-11-08T00:40:46.925Z,11.07
2023-11-08T00:43:57.477Z,12.03
2023-11-08T00:47:05.009Z,12.13
2023-11-08T00:50:12.120Z,10.63
2023-11-08T00:53:20.320Z,12.30
2023-11-08T00:56:26.895Z,11.43
2023-11-08T00:59:33.760Z,12.80
2023-11-08T01:02:43.036Z,12.63
2023-11-08T01:05:52.645Z,10.23
2023-11-08T01:09:01.145Z,12.00
2023-11-08T01:12:07.938Z,11.50
2023-11-08T01:15:14.285Z,12.17
2023-11-08T01:18:21.525Z,12.70
2023-11-08T01:21:28.175Z,13.00
2023-11-08T01:24:36.059Z,13.70
2023-11-08T01:27:42.594Z,11.30
2023-11-08T01:30:49.225Z,11.07
2023-11-08T01:33:56.903Z,11.87
2023-11-08T01:37:03.864Z,12.37
2023-11-08T01:40:12.548Z,11.20
2023-11-08T01:43:29.490Z,12.53
2023-11-08T01:46:37.128Z,13.57
2023-11-08T01:49:45.423Z,12.27
2023-11-08T01:52:52.901Z,12.20
2023-11-08T01:56:01.384Z,11.17
2023-11-08T01:59:09.489Z,11.23
2023-11-08T02:02:16.009Z,11.17
2023-11-08T02:05:25.755Z,13.17
2023-11-08T02:08:33.076Z,12.93
2023-11-08T02:11:42.536Z,14.07
2023-11-08T02:15:03.253Z,11.63
2023-11-08T02:18:10.200Z,12.43
2023-11-08T02:21:16.600Z,12.20
2023-11-08T02:24:25.213Z,10.97
2023-11-08T02:27:31.756Z,12.73
2023-11-08T02:30:38.563Z,12.10
2023-11-08T02:33:45.742Z,12.30
2023-11-08T02:36:52.375Z,11.57
2023-11-08T02:40:00.403Z,10.73
2023-11-08T02:43:06.795Z,12.50
2023-11-08T02:46:13.010Z,13.03
2023-11-08T02:49:20.013Z,10.83
2023-11-08T02:52:26.420Z,10.17
2023-11-08T02:55:34.688Z,10.07
2023-11-08T02:58:41.259Z,11.53
2023-11-08T03:01:47.919Z,11.37
2023-11-08T03:04:54.212Z,11.63
2023-11-08T03:08:01.374Z,12.23
2023-11-08T03:11:09.450Z,11.67
2023-11-08T03:14:15.930Z,11.23
2023-11-08T03:17:23.162Z,11.50
2023-11-08T03:20:29.634Z,10.50
2023-11-08T03:23:36.566Z,10.43
2023-11-08T03:26:46.255Z,10.73
2023-11-08T03:29:53.237Z,11.80
2023-11-08T03:33:00.245Z,10.93
2023-11-08T03:36:07.967Z,11.20
2023-11-08T03:39:14.631Z,31.87
2023-11-08T03:42:26.594Z,15.13
2023-11-08T03:45:33.302Z,12.80
2023-11-08T03:48:40.019Z,18.13
2023-11-08T03:51:46.522Z,20.33
2023-11-08T03:54:53.277Z,14.40
2023-11-08T03:58:02.499Z,23.93
2023-11-08T04:01:09.898Z,15.07
2023-11-08T04:04:16.056Z,12.93
2023-11-08T04:07:23.019Z,15.70
2023-11-08T04:10:29.783Z,13.67
2023-11-08T04:13:38.011Z,14.77
2023-11-08T04:16:44.297Z,14.77
2023-11-08T04:19:50.992Z,12.63
2023-11-08T04:22:57.962Z,13.17
2023-11-08T04:26:08.178Z,13.10
2023-11-08T04:29:16.395Z,12.07
2023-11-08T04:32:22.995Z,16.33
2023-11-08T04:35:29.661Z,17.00
2023-11-08T04:38:36.640Z,14.83
2023-11-08T04:41:43.041Z,17.10
2023-11-08T04:44:51.342Z,21.47
2023-11-08T04:47:57.981Z,24.27
2023-11-08T04:51:05.165Z,19.33
2023-11-08T04:54:11.793Z,26.83
2023-11-08T04:57:19.758Z,18.57
2023-11-08T05:00:27.875Z,42.77
2023-11-08T05:03:34.530Z,42.40
2023-11-08T05:06:41.113Z,26.17
2023-11-08T05:09:47.909Z,30.10
2023-11-08T05:12:54.819Z,28.23
2023-11-08T05:16:03.257Z,31.00
2023-11-08T05:19:09.870Z,26.33
2023-11-08T05:22:16.288Z,22.13
2023-11-08T05:25:22.706Z,22.97
2023-11-08T05:28:32.529Z,21.20
2023-11-08T05:31:40.534Z,21.57
2023-11-08T05:34:47.602Z,26.90
2023-11-08T05:37:54.409Z,20.93
2023-11-08T05:41:00.820Z,23.93
2023-11-08T05:44:09.352Z,30.13
2023-11-08T05:47:17.849Z,28.83
2023-11-08T05:50:24.859Z,23.23
2023-11-08T05:53:31.419Z,25.63
2023-11-08T05:56:37.886Z,19.77
2023-11-08T05:59:45.086Z,15.37
2023-11-08T06:02:53.058Z,17.90
2023-11-08T06:05:59.618Z,15.20
2023-11-08T06:09:07.416Z,15.60
2023-11-08T06:12:13.761Z,14.63
2023-11-08T06:15:20.313Z,16.43
2023-11-08T06:18:28.695Z,16.13
2023-11-08T06:21:35.396Z,14.83
2023-11-08T06:24:41.817Z,14.50
2023-11-08T06:27:49.370Z,16.13
2023-11-08T06:30:56.062Z,19.03
2023-11-08T06:34:04.073Z,15.27
2023-11-08T06:37:11.047Z,12.47
2023-11-08T06:40:17.919Z,15.87
2023-11-08T06:43:24.386Z,14.33
2023-11-08T06:46:31.789Z,13.50
2023-11-08T06:49:40.055Z,14.33
2023-11-08T06:52:47.377Z,13.87
2023-11-08T06:55:53.892Z,12.03
2023-11-08T06:59:00.619Z,10.97
2023-11-08T07:02:07.660Z,12.30
2023-11-08T07:05:18.166Z,15.90
2023-11-08T07:08:29.128Z,13.67
2023-11-08T07:11:35.823Z,13.67
2023-11-08T07:14:42.663Z,13.73
2023-11-08T07:17:49.323Z,17.43
2023-11-08T07:20:59.414Z,14.70
2023-11-08T07:24:06.887Z,23.37
2023-11-08T07:27:13.120Z,17.17
2023-11-08T07:30:19.882Z,16.33
2023-11-08T07:33:26.681Z,11.60
2023-11-08T07:36:34.822Z,12.63
2023-11-08T07:39:41.318Z,13.80
2023-11-08T07:42:47.610Z,8.80
2023-11-08T07:45:54.434Z,12.37
2023-11-08T07:49:01.186Z,13.20
2023-11-08T07:52:09.197Z,10.90
2023-11-08T07:55:15.851Z,11.07
2023-11-08T07:58:22.556Z,16.13
2023-11-08T08:01:29.297Z,8.33
2023-11-08T08:04:36.101Z,8.97
2023-11-08T08:07:44.333Z,7.93
2023-11-08T08:10:52.736Z,9.03
2023-11-08T08:13:59.332Z,7.00
2023-11-08T08:17:06.324Z,8.37
2023-11-08T08:20:13.251Z,7.27
2023-11-08T08:23:21.238Z,8.40
2023-11-08T08:26:30.667Z,7.97
2023-11-08T08:29:38.416Z,7.87
2023-11-08T08:32:44.781Z,9.10
2023-11-08T08:35:51.528Z,9.67
2023-11-08T08:38:59.076Z,8.93
2023-11-08T08:42:07.539Z,8.77
2023-11-08T08:45:15.062Z,7.60
2023-11-08T08:48:21.500Z,6.53
2023-11-08T08:51:28.740Z,6.60
2023-11-08T08:54:37.181Z,6.63
2023-11-08T08:57:48.172Z,6.77
2023-11-08T09:00:55.151Z,7.97
2023-11-08T09:04:01.882Z,6.40
2023-11-08T09:07:08.370Z,7.33
2023-11-08T09:10:16.570Z,7.03
2023-11-08T09:13:23.340Z,8.17
2023-11-08T09:16:29.492Z,6.53
2023-11-08T09:19:36.700Z,7.77
2023-11-08T09:22:44.616Z,6.10
2023-11-08T09:25:52.755Z,7.87
2023-11-08T09:28:59.893Z,8.53
2023-11-08T09:32:07.228Z,8.10
2023-11-08T09:35:14.089Z,9.43
2023-11-08T09:38:20.731Z,9.13
2023-11-08T09:41:29.108Z,8.27
2023-11-08T09:44:36.544Z,9.20
2023-11-08T09:47:44.905Z,7.00
2023-11-08T09:50:51.926Z,10.87
2023-11-08T09:54:01.557Z,8.13
2023-11-08T09:57:09.530Z,8.23
2023-11-08T10:00:17.563Z,8.80
2023-11-08T10:03:26.569Z,8.23
2023-11-08T10:06:36.169Z,7.17
2023-11-08T10:09:43.328Z,7.23
2023-11-08T10:13:04.539Z,8.63
2023-11-08T10:16:11.219Z,10.00
2023-11-08T10:19:37.402Z,9.50
2023-11-08T10:22:48.573Z,8.90
2023-11-08T10:26:15.052Z,10.43
2023-11-08T10:29:28.780Z,6.80
2023-11-08T10:32:34.806Z,8.60
2023-11-08T10:35:42.998Z,11.27
2023-11-08T10:38:50.248Z,10.47
2023-11-08T10:41:57.428Z,9.53
2023-11-08T10:45:12.503Z,10.23
2023-11-08T10:48:20.183Z,15.63
2023-11-08T10:51:26.835Z,10.23
2023-11-08T10:54:33.807Z,10.97
2023-11-08T10:57:43.435Z,10.10
2023-11-08T11:00:53.559Z,16.33
2023-11-08T11:04:06.287Z,12.67
2023-11-08T11:07:13.873Z,12.93
2023-11-08T11:10:20.342Z,14.10
2023-11-08T11:13:33.232Z,13.97
2023-11-08T11:16:50.948Z,16.23
2023-11-08T11:20:01.658Z,12.43
2023-11-08T11:23:42.925Z,12.03
2023-11-08T11:26:49.436Z,9.13
2023-11-08T11:30:28.844Z,16.03
2023-11-08T11:33:36.964Z,17.10
2023-11-08T11:37:12.146Z,11.03
2023-11-08T11:40:20.065Z,13.17
2023-11-08T11:43:45.549Z,22.03
2023-11-08T11:46:53.045Z,15.93
2023-11-08T11:50:04.178Z,13.87
2023-11-08T11:53:12.958Z,19.43
2023-11-08T11:56:19.282Z,32.87
2023-11-08T11:59:25.860Z,23.33
2023-11-08T12:02:32.674Z,9.63
2023-11-08T12:05:43.269Z,10.47
2023-11-08T12:08:41.062Z,9.97
2023-11-08T12:11:50.733Z,11.20
2023-11-08T12:14:58.536Z,11.07
2023-11-08T12:18:06.492Z,14.50
2023-11-08T12:21:15.542Z,15.73
2023-11-08T12:24:21.844Z,12.60
2023-11-08T12:27:28.683Z,12.27
2023-11-08T12:30:36.388Z,14.10
2023-11-08T12:33:42.955Z,13.73
2023-11-08T12:36:51.136Z,21.83
2023-11-08T12:40:18.495Z,9.63
2023-11-08T12:43:57.951Z,14.60
2023-11-08T12:46:56.744Z,13.27
2023-11-08T12:50:13.065Z,15.67
2023-11-08T12:53:21.746Z,26.10
2023-11-08T12:56:28.664Z,14.83
2023-11-08T12:59:36.462Z,10.17
2023-11-08T13:02:43.780Z,13.13
2023-11-08T13:05:51.074Z,11.73
2023-11-08T13:08:59.222Z,10.67
2023-11-08T13:12:06.332Z,7.00
2023-11-08T13:15:13.852Z,10.67
2023-11-08T13:18:20.989Z,17.83
2023-11-08T13:21:28.106Z,11.33
2023-11-08T13:24:36.480Z,13.87
2023-11-08T13:27:44.850Z,27.83
2023-11-08T13:30:53.314Z,29.30
2023-11-08T13:34:00.037Z,39.80
2023-11-08T13:37:06.755Z,36.37
2023-11-08T13:40:14.997Z,43.23
2023-11-08T13:43:21.589Z,39.73
2023-11-08T13:46:29.465Z,38.27
2023-11-08T13:49:35.830Z,44.37
2023-11-08T13:52:42.887Z,42.73
2023-11-08T13:55:50.356Z,47.40
2023-11-08T13:58:56.886Z,54.03
2023-11-08T14:02:06.651Z,42.93
2023-11-08T14:05:33.428Z,33.30
2023-11-08T14:08:40.873Z,26.97
2023-11-08T14:11:48.913Z,28.60
2023-11-08T14:14:55.238Z,24.07
2023-11-08T14:18:05.144Z,22.57
2023-11-08T14:21:12.721Z,16.67
2023-11-08T14:24:19.245Z,11.00
2023-11-08T14:27:26.963Z,15.17
2023-11-08T14:30:33.259Z,27.93
2023-11-08T14:33:40.364Z,20.03
2023-11-08T14:36:56.582Z,17.40
2023-11-08T14:40:04.085Z,15.57
2023-11-08T14:43:12.626Z,58.70
2023-11-08T14:46:19.308Z,41.50
2023-11-08T14:49:27.448Z,22.13
2023-11-08T14:52:33.913Z,16.10
2023-11-08T14:55:40.731Z,38.07
2023-11-08T14:58:50.300Z,38.80
2023-11-08T15:01:59.645Z,43.47
2023-11-08T15:05:06.884Z,28.30
2023-11-08T15:09:49.227Z,20.53
2023-11-08T15:11:40.459Z,18.03
2023-11-08T15:14:48.568Z,17.63
2023-11-08T15:17:54.979Z,29.50
2023-11-08T15:21:01.805Z,29.50
2023-11-08T15:24:09.954Z,35.13
2023-11-08T15:27:16.327Z,32.47
2023-11-08T15:30:24.789Z,31.03
2023-11-08T15:33:31.322Z,39.57
2023-11-08T15:36:37.918Z,60.83
2023-11-08T15:39:44.389Z,36.00
2023-11-08T15:42:51.643Z,31.27
2023-11-08T15:45:59.635Z,38.70
2023-11-08T15:49:11.689Z,33.87
2023-11-08T15:52:18.841Z,42.73
2023-11-08T15:55:27.568Z,20.93
2023-11-08T15:58:34.034Z,48.50
2023-11-08T16:01:47.099Z,16.03
2023-11-08T16:04:53.686Z,42.60
2023-11-08T16:08:02.483Z,13.83
2023-11-08T16:11:09.749Z,24.83
2023-11-08T16:14:15.932Z,9.10
2023-11-08T16:17:23.970Z,14.07
2023-11-08T16:20:30.118Z,18.30
2023-11-08T16:23:36.393Z,14.90
2023-11-08T16:26:44.449Z,13.30
2023-11-08T16:29:54.282Z,13.20
2023-11-08T16:33:02.654Z,10.63
2023-11-08T16:36:09.998Z,15.13
2023-11-08T16:39:19.128Z,16.90
2023-11-08T16:42:25.476Z,11.90
2023-11-08T16:45:32.144Z,15.37
2023-11-08T16:48:39.988Z,18.23
2023-11-08T16:51:47.092Z,18.20
2023-11-08T16:54:54.298Z,13.97
2023-11-08T16:58:00.738Z,9.53
2023-11-08T17:01:10.204Z,14.10
2023-11-08T17:04:18.532Z,9.03
2023-11-08T17:07:24.755Z,15.33
2023-11-08T17:10:30.953Z,12.30
2023-11-08T17:13:37.427Z,11.70
2023-11-08T17:16:43.831Z,12.17
2023-11-08T17:19:52.601Z,39.67
2023-11-08T17:22:58.876Z,10.90
2023-11-08T17:26:05.738Z,18.13
2023-11-08T17:29:11.938Z,20.60
2023-11-08T17:32:18.170Z,16.87
2023-11-08T17:35:26.464Z,16.83
2023-11-08T17:38:33.814Z,18.57
2023-11-08T17:41:41.401Z,11.30
2023-11-08T17:44:48.056Z,15.60
2023-11-08T17:47:55.008Z,9.20
2023-11-08T17:51:04.431Z,11.90
2023-11-08T17:54:11.894Z,11.10
2023-11-08T17:57:18.432Z,9.53
2023-11-08T18:00:25.786Z,11.23
2023-11-08T18:03:34.242Z,15.60
2023-11-08T18:06:42.118Z,9.77
2023-11-08T18:09:48.630Z,9.97
2023-11-08T18:12:55.882Z,14.40
2023-11-08T18:16:21.073Z,9.37
2023-11-08T18:19:27.880Z,7.17
2023-11-08T18:22:35.845Z,7.20
2023-11-08T18:25:42.355Z,4.60
2023-11-08T18:28:48.528Z,5.30
2023-11-08T18:31:54.735Z,7.47
2023-11-08T18:35:01.517Z,4.47
2023-11-08T18:38:09.922Z,4.50
2023-11-08T18:41:16.272Z,4.17
2023-11-08T18:44:23.209Z,3.33
2023-11-08T18:47:30.172Z,3.97
2023-11-08T18:50:36.439Z,3.30
2023-11-08T18:53:44.976Z,3.23
2023-11-08T18:56:51.427Z,3.50
2023-11-08T18:59:57.816Z,6.17
2023-11-08T19:03:04.465Z,5.33
2023-11-08T19:06:11.028Z,21.47
2023-11-08T19:09:02.228Z,6.40
2023-11-08T19:12:11.037Z,4.83
2023-11-08T19:15:18.355Z,5.17
2023-11-08T19:18:25.316Z,4.67
2023-11-08T19:21:31.377Z,5.03
2023-11-08T19:24:39.424Z,5.43
2023-11-08T19:27:46.608Z,4.73
2023-11-08T19:30:54.765Z,5.10
2023-11-08T19:34:01.779Z,4.07
2023-11-08T19:37:07.953Z,4.90
2023-11-08T19:40:16.063Z,4.20
2023-11-08T19:43:22.598Z,3.63
2023-11-08T19:46:29.723Z,3.50
2023-11-08T19:49:36.482Z,4.60
2023-11-08T19:52:43.225Z,3.63
2023-11-08T19:55:51.101Z,5.43
2023-11-08T19:58:57.659Z,7.03
2023-11-08T20:02:04.487Z,13.33
2023-11-08T20:05:12.047Z,7.27
2023-11-08T20:08:18.031Z,5.30
2023-11-08T20:11:26.784Z,5.37
2023-11-08T20:14:34.417Z,7.80
2023-11-08T20:17:40.619Z,7.87
2023-11-08T20:20:51.520Z,6.80
2023-11-08T20:23:57.624Z,5.17
2023-11-08T20:27:06.223Z,7.37
2023-11-08T20:30:13.072Z,5.33
2023-11-08T20:33:19.580Z,6.20
2023-11-08T20:36:26.750Z,5.67
2023-11-08T20:39:33.165Z,5.13
2023-11-08T20:42:41.345Z,3.63
2023-11-08T20:45:48.772Z,5.17
2023-11-08T20:48:55.992Z,3.30
2023-11-08T20:52:02.518Z,2.13
2023-11-08T20:55:10.018Z,2.03
2023-11-08T20:58:17.822Z,3.70
2023-11-08T21:01:24.279Z,4.83
2023-11-08T21:04:30.885Z,6.00
2023-11-08T21:07:37.374Z,11.03
2023-11-08T21:10:43.649Z,5.90
2023-11-08T21:13:51.371Z,6.17
2023-11-08T21:16:57.989Z,8.27
2023-11-08T21:20:04.851Z,15.90
2023-11-08T21:23:12.088Z,17.33
2023-11-08T21:26:18.140Z,7.77
2023-11-08T21:29:26.397Z,10.37
2023-11-08T21:32:33.057Z,8.97
2023-11-08T21:35:39.315Z,5.33
2023-11-08T21:38:46.473Z,6.03
2023-11-08T21:41:53.196Z,8.13
2023-11-08T21:45:00.880Z,5.87
2023-11-08T21:48:08.335Z,5.87
2023-11-08T21:51:15.561Z,5.87
2023-11-08T21:54:21.821Z,5.57
2023-11-08T21:57:28.159Z,4.80
2023-11-08T22:00:36.014Z,4.17
2023-11-08T22:03:42.508Z,3.90
2023-11-08T22:06:48.743Z,5.57
2023-11-08T22:09:56.269Z,4.10
2023-11-08T22:13:02.439Z,4.17
2023-11-08T22:16:10.372Z,3.70
2023-11-08T22:19:16.876Z,3.80
2023-11-08T22:22:23.370Z,4.30
2023-11-08T22:25:29.909Z,4.27
2023-11-08T22:28:37.296Z,4.07
2023-11-08T22:31:45.447Z,3.77
2023-11-08T22:34:51.819Z,3.30
2023-11-08T22:37:57.951Z,4.03
2023-11-08T22:41:04.631Z,4.47
2023-11-08T22:44:11.043Z,3.90
2023-11-08T22:47:19.179Z,4.10
2023-11-08T22:50:25.555Z,4.10
2023-11-08T22:53:32.777Z,2.87
2023-11-08T22:56:39.707Z,3.07
2023-11-08T22:59:46.680Z,3.33
2023-11-08T23:02:54.999Z,3.57
2023-11-08T23:06:01.483Z,3.13
2023-11-08T23:09:09.521Z,3.50
2023-11-08T23:12:16.222Z,3.60
2023-11-08T23:15:22.612Z,3.83
2023-11-08T23:18:30.955Z,3.63
2023-11-08T23:21:37.814Z,3.33
2023-11-08T23:24:44.325Z,3.33
2023-11-08T23:27:50.722Z,3.50
2023-11-08T23:30:57.376Z,3.53
2023-11-08T23:34:05.665Z,3.40
2023-11-08T23:37:12.700Z,3.10
2023-11-08T23:40:20.903Z,3.57
2023-11-08T23:43:27.219Z,2.90
2023-11-08T23:46:33.610Z,3.27
2023-11-08T23:49:41.523Z,3.50
2023-11-08T23:52:48.213Z,3.13
2023-11-08T23:55:54.674Z,2.70
2023-11-08T23:59:01.169Z,2.90
